Time;durP1;ratioP1;P1;durP2;ratioP2;P2;SDS_P1;SDS_P2;PMS_P1;PMS_P2;Temp;Humidity;BMP_temperature;BMP_pressure;BME280_temperature;BME280_humidity;BME280_pressure;Samples;Min_cycle;Max_cycle;Signal;HPM_P1;HPM_P2
2023/11/11 00:01:33;;;;;;;13.85;9.32;;;;;;;6.04;100.00;99718.13;5069672;28;20068;-56
2023/11/11 00:04:01;;;;;;;13.15;9.30;;;;;;;6.06;100.00;99711.06;5067787;28;20052;-57
2023/11/11 00:06:30;;;;;;;12.75;8.93;;;;;;;5.99;100.00;99715.84;5071441;28;20032;-57
2023/11/11 00:08:58;;;;;;;13.38;9.48;;;;;;;5.96;100.00;99725.59;5072160;28;20052;-57
2023/11/11 00:11:28;;;;;;;14.38;9.60;;;;;;;5.94;100.00;99736.13;5067886;28;20098;-57
2023/11/11 00:13:56;;;;;;;13.90;10.10;;;;;;;5.89;100.00;99731.22;5069994;28;20551;-58
2023/11/11 00:16:25;;;;;;;13.18;9.27;;;;;;;5.86;100.00;99743.63;5070323;28;20056;-57
2023/11/11 00:18:53;;;;;;;13.45;9.23;;;;;;;5.84;100.00;99743.72;5069016;28;20050;-57
2023/11/11 00:21:21;;;;;;;16.23;10.38;;;;;;;5.86;100.00;99744.47;5068906;28;20068;-57
2023/11/11 00:23:50;;;;;;;14.15;10.20;;;;;;;5.81;100.00;99745.66;5068966;28;20052;-56
2023/11/11 00:26:18;;;;;;;16.92;11.25;;;;;;;5.75;100.00;99741.66;5071967;28;20048;-57
2023/11/11 00:28:48;;;;;;;16.52;10.65;;;;;;;5.77;100.00;99737.22;5072078;28;20404;-57
2023/11/11 00:31:16;;;;;;;15.25;11.65;;;;;;;5.70;100.00;99752.41;5070802;28;20411;-57
2023/11/11 00:33:44;;;;;;;14.90;10.75;;;;;;;5.69;100.00;99748.13;5072085;28;20525;-57
2023/11/11 00:36:14;;;;;;;15.00;10.77;;;;;;;5.68;100.00;99748.22;5071225;28;20055;-56
2023/11/11 00:38:42;;;;;;;15.38;11.25;;;;;;;5.65;100.00;99743.19;5069362;28;20056;-57
2023/11/11 00:41:11;;;;;;;15.57;10.95;;;;;;;5.63;100.00;99751.13;5067274;28;20067;-56
2023/11/11 00:43:39;;;;;;;15.07;11.20;;;;;;;5.59;100.00;99745.25;5069019;28;20041;-57
2023/11/11 00:46:09;;;;;;;16.48;12.07;;;;;;;5.54;100.00;99749.91;5068003;28;20048;-57
2023/11/11 00:48:37;;;;;;;16.58;12.07;;;;;;;5.48;100.00;99749.44;5071297;28;20380;-56
2023/11/11 00:51:06;;;;;;;15.20;11.50;;;;;;;5.44;100.00;99758.38;5068736;28;20119;-56
2023/11/11 00:53:35;;;;;;;17.55;12.20;;;;;;;5.42;100.00;99755.88;5068596;28;20043;-57
2023/11/11 00:56:04;;;;;;;17.05;11.98;;;;;;;5.41;100.00;99756.78;5069545;28;20523;-57
2023/11/11 00:58:33;;;;;;;17.27;11.15;;;;;;;5.33;100.00;99761.63;5069642;28;20051;-57
2023/11/11 01:01:03;;;;;;;17.13;12.02;;;;;;;5.31;100.00;99766.94;5068217;28;20037;-58
2023/11/11 01:03:32;;;;;;;16.75;12.15;;;;;;;5.30;100.00;99757.44;5071113;28;20048;-57
2023/11/11 01:06:05;;;;;;;16.10;11.45;;;;;;;5.29;100.00;99770.56;5071050;28;20087;-57
2023/11/11 01:08:33;;;;;;;16.45;11.57;;;;;;;5.27;100.00;99773.28;5068666;28;20123;-56
2023/11/11 01:11:06;;;;;;;14.77;10.77;;;;;;;5.21;100.00;99773.66;5067678;28;20052;-57
2023/11/11 01:13:35;;;;;;;15.88;10.95;;;;;;;5.18;100.00;99779.03;5072920;28;20044;-57
2023/11/11 01:16:04;;;;;;;14.50;10.32;;;;;;;5.17;100.00;99785.22;5075358;28;20040;-57
2023/11/11 01:18:34;;;;;;;17.60;11.13;;;;;;;5.15;100.00;99789.66;5075239;28;20041;-57
2023/11/11 01:21:03;;;;;;;15.70;11.30;;;;;;;5.12;100.00;99792.44;5073951;28;20427;-56
2023/11/11 01:23:33;;;;;;;14.55;10.27;;;;;;;5.08;100.00;99791.78;5071785;28;20491;-56
2023/11/11 01:26:02;;;;;;;14.20;10.23;;;;;;;5.01;100.00;99796.50;5071460;28;20059;-57
2023/11/11 01:28:30;;;;;;;16.08;10.80;;;;;;;5.01;100.00;99790.47;5072298;28;20044;-57
2023/11/11 01:30:58;;;;;;;19.23;10.32;;;;;;;4.99;100.00;99792.31;5071729;28;20492;-56
2023/11/11 01:33:27;;;;;;;15.25;10.35;;;;;;;4.96;100.00;99797.72;5071017;28;20135;-57
2023/11/11 01:36:00;;;;;;;16.67;10.90;;;;;;;4.94;100.00;99796.97;5072163;28;20052;-56
2023/11/11 01:38:29;;;;;;;14.88;10.15;;;;;;;4.90;100.00;99807.56;5071858;28;20060;-56
2023/11/11 01:40:57;;;;;;;17.08;10.25;;;;;;;4.89;100.00;99805.06;5070774;28;20052;-57
2023/11/11 01:43:26;;;;;;;14.02;10.07;;;;;;;4.88;100.00;99809.44;5071424;28;20068;-57
2023/11/11 01:45:58;;;;;;;17.70;10.50;;;;;;;4.89;100.00;99815.47;5071880;28;20072;-57
2023/11/11 01:48:27;;;;;;;16.15;10.65;;;;;;;4.88;100.00;99816.38;5072165;28;20497;-57
2023/11/11 01:50:57;;;;;;;15.48;10.52;;;;;;;4.91;100.00;99816.25;5071688;28;20500;-57
2023/11/11 01:53:26;;;;;;;15.57;10.57;;;;;;;4.90;100.00;99819.75;5071309;28;20056;-58
2023/11/11 01:55:55;;;;;;;14.73;10.18;;;;;;;4.90;100.00;99819.75;5070601;28;20102;-57
2023/11/11 01:58:23;;;;;;;15.73;9.57;;;;;;;4.88;100.00;99814.66;5074402;28;20110;-57
2023/11/11 02:00:52;;;;;;;15.07;9.77;;;;;;;4.87;100.00;99817.34;5074362;28;20075;-58
2023/11/11 02:03:20;;;;;;;13.98;9.70;;;;;;;4.88;100.00;99830.28;5069977;28;20056;-58
2023/11/11 02:05:50;;;;;;;14.32;8.65;;;;;;;4.86;100.00;99826.91;5070179;28;20574;-58
2023/11/11 02:08:22;;;;;;;15.63;8.52;;;;;;;4.85;100.00;99830.47;5069907;28;20045;-57
2023/11/11 02:10:54;;;;;;;16.38;8.63;;;;;;;4.87;100.00;99831.19;5072491;28;20046;-57
2023/11/11 02:13:24;;;;;;;14.77;7.47;;;;;;;4.89;100.00;99826.75;5072071;28;20536;-57
2023/11/11 02:15:53;;;;;;;12.77;8.05;;;;;;;4.88;100.00;99830.28;5071114;28;20048;-57
2023/11/11 02:18:22;;;;;;;11.95;6.95;;;;;;;4.89;100.00;99833.72;5072553;28;20079;-56
2023/11/11 02:20:50;;;;;;;12.90;6.57;;;;;;;4.90;100.00;99832.78;5071345;28;20569;-57
2023/11/11 02:23:20;;;;;;;13.90;7.00;;;;;;;4.91;100.00;99839.69;5070348;28;20106;-57
2023/11/11 02:25:49;;;;;;;12.52;5.97;;;;;;;4.93;100.00;99837.00;5070046;28;20052;-57
2023/11/11 02:28:19;;;;;;;12.15;6.43;;;;;;;4.92;100.00;99830.91;5069962;28;20048;-58
2023/11/11 02:30:48;;;;;;;11.73;5.70;;;;;;;4.93;100.00;99824.78;5070796;28;20054;-57
2023/11/11 02:33:16;;;;;;;9.95;5.63;;;;;;;4.89;100.00;99824.16;5070017;28;20048;-56
2023/11/11 02:35:45;;;;;;;9.73;5.68;;;;;;;4.89;100.00;99820.69;5070548;28;20445;-57
2023/11/11 02:38:13;;;;;;;11.93;5.20;;;;;;;4.91;100.00;99809.25;5070225;28;20055;-58
2023/11/11 02:40:42;;;;;;;12.70;5.15;;;;;;;4.93;100.00;99803.94;5068586;28;20511;-57
2023/11/11 02:43:11;;;;;;;11.43;4.32;;;;;;;4.94;100.00;99813.44;5070257;28;20048;-58
2023/11/11 02:45:40;;;;;;;10.45;4.18;;;;;;;4.95;100.00;99804.72;5070432;28;20055;-57
2023/11/11 02:48:08;;;;;;;8.43;3.83;;;;;;;4.97;100.00;99818.47;5071271;28;20041;-57
2023/11/11 02:50:36;;;;;;;10.80;4.15;;;;;;;4.99;100.00;99832.25;5073566;28;20036;-56
2023/11/11 02:53:04;;;;;;;10.65;4.10;;;;;;;4.96;100.00;99840.25;5071508;28;20048;-56
2023/11/11 02:55:32;;;;;;;11.68;4.75;;;;;;;4.93;100.00;99837.00;5069608;28;20052;-57
2023/11/11 02:58:01;;;;;;;10.30;3.63;;;;;;;4.94;100.00;99846.50;5070666;28;20287;-56
2023/11/11 03:00:31;;;;;;;10.88;3.65;;;;;;;4.93;100.00;99857.84;5069782;28;20511;-57
2023/11/11 03:02:59;;;;;;;7.32;3.70;;;;;;;4.91;100.00;99860.53;5070765;28;20514;-57
2023/11/11 03:05:29;;;;;;;7.82;3.60;;;;;;;4.90;100.00;99874.47;5070930;28;20062;-50
2023/11/11 03:07:57;;;;;;;8.07;3.70;;;;;;;4.89;100.00;99878.88;5069435;28;20048;-48
2023/11/11 03:10:25;;;;;;;9.18;3.22;;;;;;;4.88;100.00;99879.78;5069162;28;20135;-49
2023/11/11 03:12:54;;;;;;;8.27;3.10;;;;;;;4.92;100.00;99883.03;5070397;28;20567;-47
2023/11/11 03:15:25;;;;;;;9.07;3.35;;;;;;;4.93;100.00;99886.50;5073206;28;20060;-57
2023/11/11 03:17:55;;;;;;;7.60;3.53;;;;;;;4.94;100.00;99885.56;5071785;28;20399;-56
2023/11/11 03:20:23;;;;;;;6.47;2.53;;;;;;;4.99;100.00;99884.38;5068637;28;20519;-57
2023/11/11 03:22:51;;;;;;;6.75;2.70;;;;;;;4.99;100.00;99905.22;5069347;28;20074;-58
2023/11/11 03:25:19;;;;;;;8.70;2.45;;;;;;;5.04;100.00;99908.38;5069328;28;20040;-57
2023/11/11 03:27:47;;;;;;;5.43;1.40;;;;;;;5.08;100.00;99902.09;5071473;28;20044;-57
2023/11/11 03:30:16;;;;;;;4.88;1.20;;;;;;;5.13;100.00;99909.66;5070393;28;20059;-57
2023/11/11 03:32:44;;;;;;;2.72;1.00;;;;;;;5.18;100.00;99883.31;5069170;28;20768;-57
2023/11/11 03:35:14;;;;;;;2.08;0.50;;;;;;;5.17;100.00;99900.72;5070596;28;20059;-57
2023/11/11 03:37:42;;;;;;;2.25;1.10;;;;;;;5.21;100.00;99909.22;5069648;28;20045;-57
2023/11/11 03:40:11;;;;;;;1.63;0.70;;;;;;;5.22;100.00;99916.94;5068391;28;20147;-56
2023/11/11 03:42:39;;;;;;;2.85;0.60;;;;;;;5.22;100.00;99911.75;5068906;28;20056;-49
2023/11/11 03:45:09;;;;;;;2.05;0.65;;;;;;;5.25;100.00;99921.97;5068730;28;20051;-48
2023/11/11 03:47:39;;;;;;;3.40;0.65;;;;;;;5.28;100.00;99918.34;5069169;28;20427;-49
2023/11/11 03:50:08;;;;;;;1.80;0.77;;;;;;;5.28;100.00;99910.53;5068517;28;20055;-49
2023/11/11 03:52:38;;;;;;;2.90;0.73;;;;;;;5.24;100.00;99920.28;5071268;28;20045;-49
2023/11/11 03:55:07;;;;;;;2.92;0.90;;;;;;;5.21;100.00;99919.66;5069173;28;20064;-57
2023/11/11 03:57:35;;;;;;;2.38;0.73;;;;;;;5.25;100.00;99927.19;5069351;28;20479;-57
2023/11/11 04:00:09;;;;;;;2.15;0.80;;;;;;;5.22;100.00;99929.13;5069072;28;20036;-57
2023/11/11 04:02:38;;;;;;;4.72;0.70;;;;;;;5.21;100.00;99945.72;5072307;28;20483;-57
2023/11/11 04:05:10;;;;;;;3.03;0.80;;;;;;;5.21;100.00;99949.16;5071893;28;20040;-57
2023/11/11 04:07:40;;;;;;;4.63;1.00;;;;;;;5.22;100.00;99945.63;5070505;28;20044;-57
2023/11/11 04:10:09;;;;;;;6.82;1.08;;;;;;;5.24;100.00;99948.97;5068193;28;20045;-57
2023/11/11 04:12:39;;;;;;;3.67;0.93;;;;;;;5.21;100.00;99949.16;5071042;28;20072;-58
2023/11/11 04:15:11;;;;;;;4.40;0.80;;;;;;;5.20;100.00;99963.09;5071823;28;20049;-57
2023/11/11 04:17:43;;;;;;;5.47;1.10;;;;;;;5.20;100.00;99964.88;5071905;28;20507;-57
2023/11/11 04:20:12;;;;;;;5.07;1.40;;;;;;;5.22;100.00;99974.31;5071657;28;20044;-57
2023/11/11 04:22:42;;;;;;;5.00;1.20;;;;;;;5.27;100.00;99960.16;5071973;28;20049;-58
2023/11/11 04:25:11;;;;;;;4.30;1.30;;;;;;;5.24;100.00;99962.00;5071808;28;20051;-58
2023/11/11 04:27:42;;;;;;;3.53;1.30;;;;;;;5.23;100.00;99965.53;5072069;28;20056;-57
2023/11/11 04:30:11;;;;;;;4.78;1.23;;;;;;;5.25;100.00;99968.09;5071109;28;20053;-60
2023/11/11 04:32:41;;;;;;;8.30;1.58;;;;;;;5.27;100.00;99978.41;5068894;28;20557;-57
2023/11/11 04:35:09;;;;;;;7.28;1.60;;;;;;;5.30;100.00;99975.63;5068157;28;20063;-57
2023/11/11 04:37:37;;;;;;;4.55;1.13;;;;;;;5.22;100.00;99971.69;5069286;28;20048;-58
2023/11/11 04:40:10;;;;;;;2.95;1.10;;;;;;;5.20;100.00;99976.16;5068775;28;20098;-57
2023/11/11 04:42:38;;;;;;;2.85;1.00;;;;;;;5.19;100.00;99978.84;5071727;28;20408;-57
2023/11/11 04:45:08;;;;;;;5.53;1.10;;;;;;;5.18;100.00;99982.38;5070379;28;20036;-57
2023/11/11 04:47:36;;;;;;;4.72;1.20;;;;;;;5.19;100.00;99984.88;5075462;28;20105;-57
2023/11/11 04:50:05;;;;;;;5.90;1.38;;;;;;;5.18;100.00;99993.66;5077052;28;20044;-57
2023/11/11 04:52:35;;;;;;;3.97;1.40;;;;;;;5.20;100.00;99989.19;5078256;28;20135;-57
2023/11/11 04:55:04;;;;;;;4.80;1.30;;;;;;;5.21;100.00;99984.81;5075400;28;20442;-58
2023/11/11 04:57:34;;;;;;;4.70;1.52;;;;;;;5.18;100.00;99990.19;5076512;28;20123;-57
2023/11/11 05:00:06;;;;;;;4.32;1.17;;;;;;;5.18;100.00;99992.78;5076924;28;20059;-57
2023/11/11 05:02:34;;;;;;;7.30;1.63;;;;;;;5.19;100.00;100003.13;5075288;28;20052;-57
2023/11/11 05:05:02;;;;;;;5.40;1.27;;;;;;;5.19;100.00;100005.75;5075041;28;20555;-58
2023/11/11 05:07:32;;;;;;;5.93;1.50;;;;;;;5.19;100.00;100004.91;5075227;28;20431;-56
2023/11/11 05:10:00;;;;;;;3.83;1.50;;;;;;;5.19;100.00;100003.13;5075563;28;20086;-58
2023/11/11 05:12:33;;;;;;;7.65;1.80;;;;;;;5.20;100.00;99997.00;5078119;28;20518;-57
2023/11/11 05:15:07;;;;;;;6.05;1.52;;;;;;;5.27;100.00;100004.50;5078088;28;20504;-57
2023/11/11 05:17:35;;;;;;;4.57;1.33;;;;;;;5.30;100.00;100004.31;5078024;28;20377;-57
2023/11/11 05:20:04;;;;;;;3.10;1.13;;;;;;;5.30;100.00;100012.13;5073970;28;20412;-57
2023/11/11 05:22:32;;;;;;;4.78;1.38;;;;;;;5.33;100.00;100014.56;5076275;28;20412;-57
2023/11/11 05:25:00;;;;;;;8.50;2.03;;;;;;;5.33;100.00;100020.63;5077834;28;20053;-58
2023/11/11 05:27:28;;;;;;;1.85;1.00;;;;;;;5.34;100.00;100018.84;5075818;28;20048;-57
2023/11/11 05:29:57;;;;;;;4.53;1.40;;;;;;;5.36;100.00;100019.63;5074756;28;20051;-58
2023/11/11 05:32:28;;;;;;;3.45;0.90;;;;;;;5.36;100.00;100022.22;5072442;28;20052;-58
2023/11/11 05:34:57;;;;;;;2.13;0.80;;;;;;;5.38;100.00;100025.56;5069358;28;20041;-57
2023/11/11 05:37:26;;;;;;;5.85;1.48;;;;;;;5.36;100.00;100023.06;5066802;28;20140;-57
2023/11/11 05:39:54;;;;;;;1.75;0.88;;;;;;;5.38;100.00;100020.34;5061533;28;20510;-57
2023/11/11 05:42:22;;;;;;;4.63;1.10;;;;;;;5.39;100.00;100022.88;5067785;28;20068;-58
2023/11/11 05:44:51;;;;;;;4.38;1.30;;;;;;;5.40;100.00;100024.56;5074749;28;20044;-57
2023/11/11 05:47:19;;;;;;;2.53;1.20;;;;;;;5.38;100.00;100023.78;5054492;28;20048;-57
2023/11/11 05:49:49;;;;;;;7.93;1.60;;;;;;;5.45;100.00;100026.06;5054752;28;20037;-57
2023/11/11 05:52:17;;;;;;;5.45;1.35;;;;;;;5.43;100.00;100026.16;5070937;28;20441;-57
2023/11/11 05:54:45;;;;;;;4.43;1.30;;;;;;;5.46;100.00;100035.59;5072390;28;20056;-57
2023/11/11 05:57:14;;;;;;;6.07;2.10;;;;;;;5.44;100.00;100045.25;5067795;28;20084;-57
2023/11/11 05:59:42;;;;;;;7.68;1.58;;;;;;;5.35;100.00;100050.06;5051818;28;20044;-57
2023/11/11 06:02:10;;;;;;;5.28;1.50;;;;;;;5.36;100.00;100053.53;5057714;28;20395;-57
2023/11/11 06:04:38;;;;;;;5.00;1.60;;;;;;;5.37;100.00;100060.41;5059734;28;20523;-58
2023/11/11 06:07:09;;;;;;;9.05;1.80;;;;;;;5.37;100.00;100058.66;5053551;28;20499;-58
2023/11/11 06:09:39;;;;;;;4.43;1.42;;;;;;;5.38;100.00;100059.47;5061588;28;20606;-56
2023/11/11 06:12:10;;;;;;;4.45;1.65;;;;;;;5.41;100.00;100067.13;5057656;28;20045;-58
2023/11/11 06:14:38;;;;;;;5.10;1.67;;;;;;;5.37;100.00;100065.59;5067323;28;20494;-57
2023/11/11 06:17:06;;;;;;;6.50;1.50;;;;;;;5.35;100.00;100068.31;5050765;28;20044;-57
2023/11/11 06:19:34;;;;;;;5.65;1.55;;;;;;;5.37;100.00;100066.47;5064597;28;20518;-57
2023/11/11 06:22:04;;;;;;;4.72;1.20;;;;;;;5.39;100.00;100063.78;5058249;28;20144;-57
2023/11/11 06:24:34;;;;;;;4.07;1.23;;;;;;;5.36;100.00;100058.75;5067837;28;20045;-58
2023/11/11 06:27:05;;;;;;;3.20;1.05;;;;;;;5.33;100.00;100062.34;5070267;28;20534;-58
2023/11/11 06:29:33;;;;;;;2.47;0.70;;;;;;;5.32;100.00;100059.84;5053522;28;20045;-58
2023/11/11 06:32:01;;;;;;;3.33;0.77;;;;;;;5.33;100.00;100053.66;5058980;28;20123;-57
2023/11/11 06:34:29;;;;;;;3.45;0.80;;;;;;;5.28;100.00;100047.91;5063843;28;20048;-57
2023/11/11 06:36:57;;;;;;;2.20;0.75;;;;;;;5.30;100.00;100053.84;5053909;28;20041;-57
2023/11/11 06:39:26;;;;;;;2.13;0.70;;;;;;;5.27;100.00;100064.47;5054967;28;20062;-56
2023/11/11 06:41:56;;;;;;;0.90;0.50;;;;;;;5.27;100.00;100061.84;5059590;28;20530;-57
2023/11/11 06:44:24;;;;;;;2.28;0.60;;;;;;;5.27;100.00;100069.66;5067178;28;20064;-57
2023/11/11 06:46:52;;;;;;;1.98;0.50;;;;;;;5.25;100.00;100072.38;5067070;28;20049;-57
2023/11/11 06:49:20;;;;;;;2.63;0.60;;;;;;;5.27;100.00;100082.72;5058027;28;20045;-58
2023/11/11 06:51:48;;;;;;;1.83;0.68;;;;;;;5.30;100.00;100087.75;5052511;28;20575;-57
2023/11/11 06:54:16;;;;;;;2.03;0.73;;;;;;;5.33;100.00;100091.03;5058108;28;20361;-57
2023/11/11 06:56:45;;;;;;;3.40;0.93;;;;;;;5.35;100.00;100091.78;5073866;28;20049;-57
2023/11/11 06:59:15;;;;;;;3.58;0.65;;;;;;;5.34;100.00;100091.88;5073508;28;20044;-57
2023/11/11 07:01:43;;;;;;;2.13;0.93;;;;;;;5.33;100.00;100095.38;5072122;28;20036;-57
2023/11/11 07:04:11;;;;;;;2.35;1.30;;;;;;;5.31;100.00;100095.47;5073459;28;20045;-57
2023/11/11 07:06:40;;;;;;;3.65;1.25;;;;;;;5.31;100.00;100102.47;5072110;28;20044;-57
2023/11/11 07:09:12;;;;;;;3.38;1.40;;;;;;;5.32;100.00;100105.00;5068618;28;20041;-57
2023/11/11 07:11:40;;;;;;;4.55;1.25;;;;;;;5.33;100.00;100100.59;5072332;28;20123;-57
2023/11/11 07:14:08;;;;;;;3.30;1.40;;;;;;;5.34;100.00;100103.13;5069809;28;20154;-57
2023/11/11 07:16:37;;;;;;;4.80;1.65;;;;;;;5.33;100.00;100111.03;5069700;28;20076;-57
2023/11/11 07:19:06;;;;;;;3.03;1.58;;;;;;;5.31;100.00;100110.28;5069815;28;20079;-57
2023/11/11 07:21:34;;;;;;;4.07;1.60;;;;;;;5.29;100.00;100117.34;5071820;28;20037;-56
2023/11/11 07:24:02;;;;;;;6.07;1.80;;;;;;;5.27;100.00;100127.03;5071153;28;20114;-57
2023/11/11 07:26:31;;;;;;;4.40;1.75;;;;;;;5.22;100.00;100125.53;5068597;28;20471;-57
2023/11/11 07:28:59;;;;;;;3.55;1.63;;;;;;;5.23;100.00;100134.16;5072892;28;20557;-57
2023/11/11 07:31:27;;;;;;;3.70;1.70;;;;;;;5.23;100.00;100134.16;5070280;28;20048;-57
2023/11/11 07:33:56;;;;;;;2.92;1.67;;;;;;;5.23;100.00;100134.16;5068537;28;20060;-58
2023/11/11 07:36:25;;;;;;;5.13;1.70;;;;;;;5.27;100.00;100134.84;5069174;28;20051;-57
2023/11/11 07:38:53;;;;;;;5.10;2.00;;;;;;;5.33;100.00;100131.91;5070437;28;20438;-58
2023/11/11 07:41:23;;;;;;;4.88;1.65;;;;;;;5.28;100.00;100133.94;5070518;28;20049;-57
2023/11/11 07:43:51;;;;;;;3.42;1.88;;;;;;;5.19;100.00;100136.09;5069867;28;20540;-58
2023/11/11 07:46:19;;;;;;;4.25;1.98;;;;;;;5.19;100.00;100137.88;5061367;28;20056;-57
2023/11/11 07:48:47;;;;;;;4.00;1.60;;;;;;;5.30;100.00;100153.75;5054116;28;20049;-57
2023/11/11 07:51:17;;;;;;;4.35;1.70;;;;;;;5.39;100.00;100149.84;5056458;28;20049;-57
2023/11/11 07:53:49;;;;;;;;;;;;;;;5.56;100.00;100144.53;5056536;28;20047;-56
2023/11/11 07:56:17;;;;;;;2.70;1.60;;;;;;;5.73;100.00;100142.75;5061785;28;19925;-48
2023/11/11 07:58:47;;;;;;;2.85;1.20;;;;;;;5.95;100.00;100144.97;5059486;28;20492;-46
2023/11/11 08:01:17;;;;;;;2.03;1.17;;;;;;;6.16;100.00;100145.56;5058694;28;20079;-47
2023/11/11 08:03:45;;;;;;;3.22;1.40;;;;;;;6.32;100.00;100144.66;5063029;28;20099;-48
2023/11/11 08:06:13;;;;;;;2.45;0.95;;;;;;;6.51;100.00;100153.09;5054716;28;20053;-45
2023/11/11 08:08:44;;;;;;;1.85;1.00;;;;;;;6.77;100.00;100158.53;5063099;28;20044;-48
2023/11/11 08:11:14;;;;;;;3.42;1.10;;;;;;;6.94;100.00;100160.97;5052274;28;20508;-46
2023/11/11 08:13:42;;;;;;;2.80;1.10;;;;;;;7.03;100.00;100158.75;5055139;28;20056;-47
2023/11/11 08:16:11;;;;;;;2.20;1.05;;;;;;;7.13;100.00;100164.25;5067818;28;20053;-45
2023/11/11 08:18:40;;;;;;;1.42;0.85;;;;;;;7.15;100.00;100165.81;5068275;28;20044;-48
2023/11/11 08:21:19;;;;;;;3.60;0.90;;;;;;;7.27;100.00;100162.44;5069159;28;20119;-49
2023/11/11 08:24:03;;;;;;;3.08;0.90;;;;;;;7.35;100.00;100163.75;5070951;28;20078;-48
2023/11/11 08:26:31;;;;;;;2.10;0.85;;;;;;;7.32;100.00;100174.41;5067852;28;20417;-51
2023/11/11 08:28:59;;;;;;;2.55;0.70;;;;;;;7.36;100.00;100166.28;5068694;28;20491;-50
2023/11/11 08:31:27;;;;;;;1.65;0.98;;;;;;;7.52;100.00;100181.00;5067749;28;20408;-51
2023/11/11 08:33:55;;;;;;;1.30;0.73;;;;;;;7.54;100.00;100173.88;5068951;28;20479;-47
2023/11/11 08:36:27;;;;;;;2.70;0.90;;;;;;;7.59;100.00;100177.94;5072014;28;20037;-56
2023/11/11 08:39:07;;;;;;;2.28;0.73;;;;;;;7.54;100.00;100181.75;5069359;28;20059;-46
2023/11/11 08:41:35;;;;;;;2.30;0.80;;;;;;;7.53;100.00;100178.28;5068223;28;20060;-57
2023/11/11 08:44:04;;;;;;;2.38;0.90;;;;;;;7.50;100.00;100191.59;5070054;28;20106;-57
2023/11/11 08:46:32;;;;;;;2.05;1.02;;;;;;;7.43;100.00;100209.44;5069231;28;20141;-57
2023/11/11 08:49:00;;;;;;;1.90;0.90;;;;;;;7.36;100.00;100207.28;5070624;28;20399;-56
2023/11/11 08:51:29;;;;;;;2.97;1.00;;;;;;;7.33;100.00;100199.63;5071997;28;20048;-57
2023/11/11 08:53:58;;;;;;;2.17;0.77;;;;;;;7.28;100.00;100203.38;5071514;28;20083;-57
2023/11/11 08:56:28;;;;;;;2.13;0.80;;;;;;;7.17;100.00;100207.56;5071144;28;20051;-57
2023/11/11 08:58:56;;;;;;;2.45;1.05;;;;;;;7.15;100.00;100204.22;5069672;28;20105;-57
2023/11/11 09:01:25;;;;;;;3.00;0.80;;;;;;;7.18;100.00;100194.41;5069305;28;20055;-57
2023/11/11 09:03:54;;;;;;;2.30;0.80;;;;;;;7.16;100.00;100211.97;5069441;28;20412;-57
2023/11/11 09:06:22;;;;;;;3.95;0.90;;;;;;;7.11;100.00;100214.84;5071195;28;20052;-57
2023/11/11 09:08:50;;;;;;;3.13;1.08;;;;;;;7.21;100.00;100212.53;5072165;28;20079;-57
2023/11/11 09:11:18;;;;;;;3.63;1.00;;;;;;;7.20;100.00;100216.09;5072136;28;20048;-57
2023/11/11 09:13:48;;;;;;;2.15;0.75;;;;;;;7.30;100.00;100220.75;5072126;28;20147;-57
2023/11/11 09:16:16;;;;;;;2.38;0.90;;;;;;;7.42;100.00;100212.97;5072019;28;20044;-57
2023/11/11 09:18:45;;;;;;;1.27;0.80;;;;;;;7.49;100.00;100210.81;5072113;28;20055;-57
2023/11/11 09:21:13;;;;;;;3.33;1.00;;;;;;;7.54;100.00;100198.31;5071752;28;20076;-57
2023/11/11 09:23:41;;;;;;;1.70;0.82;;;;;;;7.57;100.00;100202.50;5071847;28;20068;-57
2023/11/11 09:26:09;;;;;;;3.13;1.00;;;;;;;7.56;100.00;100206.88;5071981;28;20110;-57
2023/11/11 09:28:38;;;;;;;1.98;0.80;;;;;;;7.68;100.00;100213.13;5071063;28;20041;-58
2023/11/11 09:31:12;;;;;;;2.10;1.13;;;;;;;7.82;100.00;100224.50;5069939;28;20052;-57
2023/11/11 09:33:41;;;;;;;2.38;0.73;;;;;;;7.93;100.00;100233.38;5074381;28;20049;-57
2023/11/11 09:36:09;;;;;;;2.95;1.00;;;;;;;8.21;100.00;100233.38;5074054;28;20070;-57
2023/11/11 09:38:37;;;;;;;1.85;0.90;;;;;;;8.29;100.00;100238.97;5074416;28;20087;-57
2023/11/11 09:41:06;;;;;;;3.67;1.10;;;;;;;8.29;100.00;100238.97;5073472;28;20094;-57
2023/11/11 09:43:34;;;;;;;3.55;1.10;;;;;;;8.24;100.00;100238.41;5074332;28;20056;-57
2023/11/11 09:46:04;;;;;;;2.60;1.00;;;;;;;8.22;100.00;100238.50;5074041;28;20143;-58
2023/11/11 09:48:34;;;;;;;3.72;1.55;;;;;;;8.25;100.00;100229.63;5073764;28;20044;-57
2023/11/11 09:51:06;;;;;;;3.33;1.10;;;;;;;8.31;100.00;100231.00;5072122;28;20048;-46
2023/11/11 09:53:35;;;;;;;2.37;1.00;;;;;;;8.23;100.00;100227.06;5074603;28;20147;-50
2023/11/11 09:56:06;;;;;;;4.72;1.52;;;;;;;8.15;100.00;100226.72;5074692;28;20044;-48
2023/11/11 09:58:35;;;;;;;4.78;1.58;;;;;;;8.23;100.00;100228.88;5074661;28;20052;-50
2023/11/11 10:01:04;;;;;;;6.00;1.92;;;;;;;8.43;100.00;100227.56;5074667;28;20048;-49
2023/11/11 10:03:34;;;;;;;4.40;2.10;;;;;;;8.74;100.00;100236.03;5072934;28;20127;-47
2023/11/11 10:06:06;;;;;;;6.22;2.08;;;;;;;8.91;100.00;100234.91;5071298;28;20054;-48
2023/11/11 10:08:34;;;;;;;6.30;2.63;;;;;;;9.05;100.00;100237.44;5071392;28;20076;-49
2023/11/11 10:11:04;;;;;;;7.95;2.95;;;;;;;9.24;100.00;100237.00;5074143;28;20442;-57
2023/11/11 10:13:33;;;;;;;6.93;3.10;;;;;;;9.37;100.00;100236.16;5074787;28;20052;-57
2023/11/11 10:16:18;;;;;;;8.10;3.55;;;;;;;9.45;100.00;100239.09;5072926;28;20057;-49
2023/11/11 10:18:50;;;;;;;8.18;3.80;;;;;;;9.51;100.00;100235.19;5073814;28;20139;-49
2023/11/11 10:21:20;;;;;;;10.32;3.92;;;;;;;9.69;100.00;100249.63;5064676;28;20113;-51
2023/11/11 10:23:49;;;;;;;7.22;3.60;;;;;;;9.60;100.00;100232.75;5071275;28;20059;-48
2023/11/11 10:26:20;;;;;;;9.07;3.53;;;;;;;9.69;100.00;100233.03;5072869;28;20454;-49
2023/11/11 10:28:48;;;;;;;8.80;3.45;;;;;;;9.97;100.00;100243.25;5071203;28;20134;-48
2023/11/11 10:31:18;;;;;;;9.15;3.33;;;;;;;10.18;100.00;100245.25;5069663;28;20068;-50
2023/11/11 10:33:52;;;;;;;8.25;3.50;;;;;;;10.33;100.00;100245.94;5070746;28;20831;-47
2023/11/11 10:36:22;;;;;;;8.82;3.05;;;;;;;10.36;100.00;100248.38;5070486;28;20052;-49
2023/11/11 10:38:54;;;;;;;9.60;3.10;;;;;;;10.42;100.00;100249.72;5071428;28;20044;-51
2023/11/11 10:41:23;;;;;;;9.23;3.45;;;;;;;10.61;100.00;100242.13;5069807;28;20487;-51
2023/11/11 10:43:52;;;;;;;9.52;3.65;;;;;;;10.66;100.00;100244.41;5070104;28;20063;-47
2023/11/11 10:46:20;;;;;;;10.73;3.40;;;;;;;10.88;100.00;100248.03;5069494;28;20045;-48
2023/11/11 10:48:49;;;;;;;10.45;3.30;;;;;;;10.85;100.00;100251.75;5068355;28;20047;-47
2023/11/11 10:51:19;;;;;;;9.18;2.97;;;;;;;10.81;100.00;100248.53;5068788;28;20045;-47
2023/11/11 10:53:49;;;;;;;10.15;3.47;;;;;;;10.77;100.00;100249.72;5071647;28;20521;-46
2023/11/11 10:56:21;;;;;;;9.27;3.20;;;;;;;10.72;100.00;100243.13;5073441;28;20044;-48
2023/11/11 10:58:54;;;;;;;9.13;3.42;;;;;;;10.80;100.00;100249.47;5070805;28;20044;-45
2023/11/11 11:01:23;;;;;;;8.55;3.20;;;;;;;10.53;100.00;100251.53;5069617;28;20369;-47
2023/11/11 11:03:52;;;;;;;8.30;3.47;;;;;;;10.54;100.00;100259.31;5070041;28;20379;-44
2023/11/11 11:06:33;;;;;;;8.23;2.55;;;;;;;10.48;100.00;100257.13;5070098;28;20072;-47
2023/11/11 11:09:18;;;;;;;6.47;2.67;;;;;;;10.60;100.00;100264.09;5069595;28;20498;-47
2023/11/11 11:11:57;;;;;;;8.40;3.45;;;;;;;10.67;100.00;100263.66;5069819;28;20048;-47
2023/11/11 11:14:44;;;;;;;7.32;2.83;;;;;;;10.51;100.00;100264.78;5070930;28;20419;-47
2023/11/11 11:17:12;;;;;;;8.20;3.17;;;;;;;10.38;100.00;100266.66;5072760;28;20067;-48
2023/11/11 11:20:04;;;;;;;6.70;2.72;;;;;;;10.30;100.00;100270.63;5072801;28;20529;-49
2023/11/11 11:22:38;;;;;;;8.52;2.83;;;;;;;10.39;100.00;100271.81;5070034;28;20770;-49
2023/11/11 11:25:32;;;;;;;8.68;2.92;;;;;;;10.19;100.00;100278.47;5068934;28;20037;-46
2023/11/11 11:28:25;;;;;;;8.57;2.95;;;;;;;10.29;100.00;100271.63;5071634;28;20052;-48
2023/11/11 11:30:58;;;;;;;7.13;2.90;;;;;;;10.37;100.00;100272.88;5063279;28;20061;-47
2023/11/11 11:33:27;;;;;;;9.18;2.63;;;;;;;10.40;100.00;100273.50;5071030;28;20119;-51
2023/11/11 11:36:00;;;;;;;7.05;2.80;;;;;;;10.42;100.00;100270.75;5069593;28;20519;-49